createdAt,value
2023-04-18T00:00:49.600Z,9.20
2023-04-18T00:06:12.978Z,9.21
2023-04-18T00:11:35.178Z,9.19
2023-04-18T00:16:57.445Z,9.15
2023-04-18T00:22:22.632Z,9.09
2023-04-18T00:27:44.363Z,9.04
2023-04-18T00:33:06.559Z,9.04
2023-04-18T00:38:28.626Z,9.03
2023-04-18T00:43:50.380Z,9.05
2023-04-18T00:49:12.578Z,9.04
2023-04-18T00:54:35.616Z,9.04
2023-04-18T00:59:57.644Z,9.04
2023-04-18T01:05:21.395Z,9.05
2023-04-18T01:10:45.916Z,9.04
2023-04-18T01:16:10.720Z,9.00
2023-04-18T01:21:37.457Z,9.00
2023-04-18T01:26:59.939Z,9.01
2023-04-18T01:32:22.352Z,9.01
2023-04-18T01:37:44.407Z,9.03
2023-04-18T01:43:06.434Z,9.02
2023-04-18T01:48:28.382Z,9.00
2023-04-18T01:53:50.785Z,9.01
2023-04-18T01:59:12.412Z,9.02
2023-04-18T02:04:34.146Z,9.01
2023-04-18T02:09:56.272Z,9.01
2023-04-18T02:15:18.100Z,9.01
2023-04-18T02:20:40.236Z,9.02
2023-04-18T02:26:03.771Z,9.02
2023-04-18T02:31:25.620Z,9.01
2023-04-18T02:36:47.324Z,9.01
2023-04-18T02:42:09.160Z,8.99
2023-04-18T02:47:35.423Z,9.00
2023-04-18T02:53:05.557Z,8.98
2023-04-18T02:58:37.332Z,8.96
2023-04-18T03:04:19.248Z,8.95
2023-04-18T03:09:52.386Z,8.97
2023-04-18T03:15:18.782Z,9.01
2023-04-18T03:20:41.469Z,9.01
2023-04-18T03:26:06.002Z,9.01
2023-04-18T03:31:31.091Z,8.99
2023-04-18T03:36:53.188Z,9.01
2023-04-18T03:42:14.809Z,9.03
2023-04-18T03:47:38.056Z,9.05
2023-04-18T03:53:00.966Z,9.06
2023-04-18T03:58:24.430Z,9.07
2023-04-18T04:03:47.944Z,9.05
2023-04-18T04:09:10.206Z,9.07
2023-04-18T04:14:32.709Z,9.08
2023-04-18T04:19:55.325Z,9.07
2023-04-18T04:25:19.512Z,9.07
2023-04-18T04:30:41.898Z,9.08
2023-04-18T04:36:04.033Z,9.09
2023-04-18T04:41:27.968Z,9.14
2023-04-18T04:46:50.001Z,9.20
2023-04-18T04:52:15.444Z,9.25
2023-04-18T04:57:37.895Z,9.26
2023-04-18T05:03:09.108Z,9.24
2023-04-18T05:08:31.032Z,9.23
2023-04-18T05:13:53.086Z,9.23
2023-04-18T05:19:16.420Z,9.26
2023-04-18T05:24:38.411Z,9.30
2023-04-18T05:30:00.104Z,9.41
2023-04-18T05:35:21.971Z,9.51
2023-04-18T05:40:44.240Z,9.64
2023-04-18T05:46:06.583Z,9.72
2023-04-18T05:51:28.829Z,9.74
2023-04-18T05:56:50.336Z,9.81
2023-04-18T06:02:13.768Z,9.88
2023-04-18T06:07:35.999Z,9.91
2023-04-18T06:12:57.922Z,9.98
2023-04-18T06:18:22.061Z,10.01
2023-04-18T06:23:43.900Z,10.01
2023-04-18T06:29:05.628Z,10.06
2023-04-18T06:34:27.836Z,10.19
2023-04-18T06:39:49.379Z,10.43
2023-04-18T06:45:12.297Z,10.64
2023-04-18T06:50:35.230Z,10.84
2023-04-18T06:55:58.425Z,11.00
2023-04-18T07:01:21.193Z,11.09
2023-04-18T07:06:43.017Z,11.20
2023-04-18T07:12:05.265Z,11.19
2023-04-18T07:17:27.260Z,11.29
2023-04-18T07:22:49.028Z,11.45
2023-04-18T07:28:10.749Z,11.64
2023-04-18T07:33:34.062Z,11.85
2023-04-18T07:38:56.637Z,12.05
2023-04-18T07:44:18.802Z,12.18
2023-04-18T07:49:40.682Z,12.36
2023-04-18T07:55:02.512Z,12.24
2023-04-18T08:00:24.589Z,12.25
2023-04-18T08:05:46.241Z,12.45
2023-04-18T08:11:08.094Z,12.73
2023-04-18T08:16:30.116Z,12.85
2023-04-18T08:21:52.260Z,12.76
2023-04-18T08:27:14.190Z,12.77
2023-04-18T08:32:36.940Z,12.77
2023-04-18T08:37:58.947Z,13.02
2023-04-18T08:43:21.278Z,13.22
2023-04-18T08:48:43.208Z,13.21
2023-04-18T08:54:06.408Z,13.12
2023-04-18T08:59:28.174Z,13.21
2023-04-18T09:04:53.809Z,13.24
2023-04-18T09:10:46.742Z,13.39
2023-04-18T09:16:09.314Z,13.66
2023-04-18T09:21:32.902Z,13.74
2023-04-18T09:26:57.389Z,13.83
2023-04-18T09:32:20.926Z,13.87
2023-04-18T09:37:51.368Z,13.74
2023-04-18T09:43:20.703Z,13.65
2023-04-18T09:48:42.849Z,13.66
2023-04-18T09:54:07.783Z,13.81
2023-04-18T09:59:47.852Z,13.82
2023-04-18T10:05:09.833Z,13.80
2023-04-18T10:10:32.751Z,13.99
2023-04-18T10:15:55.198Z,14.41
2023-04-18T10:21:17.488Z,14.82
2023-04-18T10:26:47.284Z,15.02
2023-04-18T10:32:09.394Z,15.00
2023-04-18T10:37:35.582Z,14.94
2023-04-18T10:42:58.354Z,14.70
2023-04-18T10:48:31.436Z,14.64
2023-04-18T10:53:57.268Z,14.94
2023-04-18T10:59:22.838Z,15.15
2023-04-18T11:04:52.471Z,15.32
2023-04-18T11:10:17.316Z,15.29
2023-04-18T11:15:40.236Z,15.11
2023-04-18T11:21:04.079Z,14.93
2023-04-18T11:26:27.597Z,14.83
2023-04-18T11:31:54.581Z,14.82
2023-04-18T11:37:19.096Z,15.01
2023-04-18T11:42:41.696Z,15.11
2023-04-18T11:48:03.986Z,15.29
2023-04-18T11:53:33.858Z,15.42
2023-04-18T11:58:56.542Z,15.47
2023-04-18T12:04:19.253Z,15.44
2023-04-18T12:09:42.299Z,15.63
2023-04-18T12:15:08.135Z,15.83
2023-04-18T12:20:35.442Z,15.92
2023-04-18T12:26:07.405Z,16.00
2023-04-18T12:31:29.226Z,16.03
2023-04-18T12:36:54.010Z,16.16
2023-04-18T12:42:16.124Z,16.23
2023-04-18T12:47:39.406Z,16.13
2023-04-18T12:53:01.853Z,16.08
2023-04-18T12:58:23.725Z,15.99
2023-04-18T13:03:53.484Z,16.00
2023-04-18T13:09:22.238Z,16.08
2023-04-18T13:14:44.311Z,16.02
2023-04-18T13:20:13.267Z,16.12
2023-04-18T13:25:35.058Z,16.15
2023-04-18T13:30:57.171Z,16.04
2023-04-18T13:36:18.998Z,16.07
2023-04-18T13:41:41.235Z,16.10
2023-04-18T13:47:05.196Z,16.04
2023-04-18T13:52:26.902Z,16.12
2023-04-18T13:57:48.712Z,16.20
2023-04-18T14:03:11.047Z,16.26
2023-04-18T14:08:33.042Z,16.42
2023-04-18T14:13:54.923Z,16.49
2023-04-18T14:19:18.146Z,16.68
2023-04-18T14:24:40.193Z,16.63
2023-04-18T14:30:02.211Z,16.38
2023-04-18T14:35:24.309Z,16.21
2023-04-18T14:40:46.986Z,16.03
2023-04-18T14:46:16.806Z,15.87
2023-04-18T14:51:39.055Z,15.81
2023-04-18T14:57:01.686Z,15.82
2023-04-18T15:02:23.582Z,15.83
2023-04-18T15:07:45.844Z,15.80
2023-04-18T15:13:11.665Z,15.72
2023-04-18T15:18:34.036Z,15.61
2023-04-18T15:23:55.784Z,15.51
2023-04-18T15:29:17.485Z,15.33
2023-04-18T15:34:39.052Z,15.18
2023-04-18T15:40:00.839Z,15.15
2023-04-18T15:45:22.375Z,15.06
2023-04-18T15:50:51.417Z,14.95
2023-04-18T15:56:14.073Z,14.89
2023-04-18T16:01:36.705Z,14.80
2023-04-18T16:06:58.838Z,14.76
2023-04-18T16:12:20.638Z,14.79
2023-04-18T16:17:42.671Z,14.84
2023-04-18T16:23:04.866Z,14.87
2023-04-18T16:28:27.025Z,14.80
2023-04-18T16:33:48.984Z,14.66
2023-04-18T16:39:11.090Z,14.55
2023-04-18T16:44:33.395Z,14.43
2023-04-18T16:49:55.652Z,14.28
2023-04-18T16:55:17.580Z,14.11
2023-04-18T17:00:39.721Z,14.01
2023-04-18T17:06:01.884Z,13.91
2023-04-18T17:11:23.766Z,13.77
2023-04-18T17:16:45.915Z,13.65
2023-04-18T17:22:08.126Z,13.56
2023-04-18T17:27:30.241Z,13.49
2023-04-18T17:32:52.960Z,13.46
2023-04-18T17:38:14.698Z,13.34
2023-04-18T17:43:36.955Z,13.15
2023-04-18T17:48:58.878Z,13.05
2023-04-18T17:54:20.907Z,12.99
2023-04-18T17:59:42.922Z,12.93
2023-04-18T18:05:05.671Z,12.86
2023-04-18T18:10:27.499Z,12.74
2023-04-18T18:15:49.527Z,12.61
2023-04-18T18:21:21.403Z,12.52
2023-04-18T18:26:43.239Z,12.41
2023-04-18T18:32:06.363Z,12.25
2023-04-18T18:37:28.416Z,12.20
2023-04-18T18:42:51.624Z,12.13
2023-04-18T18:48:14.807Z,12.03
2023-04-18T18:53:38.408Z,11.93
2023-04-18T18:59:01.849Z,11.84
2023-04-18T19:04:24.332Z,11.80
2023-04-18T19:09:47.097Z,11.77
2023-04-18T19:15:09.725Z,11.74
2023-04-18T19:20:31.850Z,11.72
2023-04-18T19:25:53.495Z,11.68
2023-04-18T19:31:15.544Z,11.66
2023-04-18T19:36:37.651Z,11.61
2023-04-18T19:41:59.363Z,11.55
2023-04-18T19:47:21.223Z,11.54
2023-04-18T19:52:43.253Z,11.53
2023-04-18T19:58:06.055Z,11.59
2023-04-18T20:03:27.936Z,11.62
2023-04-18T20:08:49.517Z,11.56
2023-04-18T20:14:14.450Z,11.58
2023-04-18T20:19:36.587Z,11.59
2023-04-18T20:24:58.508Z,11.59
2023-04-18T20:30:21.882Z,11.59
2023-04-18T20:35:44.680Z,11.59
2023-04-18T20:41:06.416Z,11.58
2023-04-18T20:46:28.473Z,11.62
2023-04-18T20:51:50.423Z,11.68
2023-04-18T20:57:12.229Z,11.72
2023-04-18T21:02:34.431Z,11.76
2023-04-18T21:07:56.193Z,11.78
2023-04-18T21:13:17.944Z,11.83
2023-04-18T21:18:39.713Z,11.90
2023-04-18T21:24:02.170Z,11.82
2023-04-18T21:29:23.985Z,11.79
2023-04-18T21:34:46.647Z,11.82
2023-04-18T21:40:09.273Z,11.84
2023-04-18T21:45:31.236Z,11.83
2023-04-18T21:50:56.192Z,11.80
2023-04-18T21:56:18.164Z,11.82
2023-04-18T22:01:39.997Z,11.90
2023-04-18T22:07:02.640Z,11.95
2023-04-18T22:12:24.721Z,11.91
2023-04-18T22:17:50.345Z,11.92
2023-04-18T22:23:12.460Z,11.95
2023-04-18T22:28:34.349Z,11.95
2023-04-18T22:33:56.224Z,11.98
2023-04-18T22:39:18.048Z,11.99
2023-04-18T22:44:40.538Z,11.97
2023-04-18T22:50:02.695Z,11.95
2023-04-18T22:55:27.448Z,11.93
2023-04-18T23:00:48.983Z,11.91
2023-04-18T23:06:10.774Z,11.89
2023-04-18T23:11:32.685Z,11.86
2023-04-18T23:16:54.431Z,11.79
2023-04-18T23:22:16.256Z,11.78
2023-04-18T23:27:38.220Z,11.75
2023-04-18T23:33:00.369Z,11.71
2023-04-18T23:38:22.365Z,11.62
2023-04-18T23:43:45.000Z,11.55
2023-04-18T23:49:06.505Z,11.46
2023-04-18T23:54:28.256Z,11.27
2023-04-18T23:59:50.134Z,11.25
